sensor_id;sensor_type;location;lat;lon;timestamp;temperature;humidity
15152;DHT22;7676;50.900;6.234;2022-09-24T00:03:10;17.70;99.90
15152;DHT22;7676;50.900;6.234;2022-09-24T00:08:15;17.70;99.90
15152;DHT22;7676;50.900;6.234;2022-09-24T00:13:34;17.80;99.90
15152;DHT22;7676;50.900;6.234;2022-09-24T00:18:40;17.70;99.90
15152;DHT22;7676;50.900;6.234;2022-09-24T00:23:47;17.70;99.90
15152;DHT22;7676;50.900;6.234;2022-09-24T00:33:54;17.50;99.90
15152;DHT22;7676;50.900;6.234;2022-09-24T00:38:58;17.60;99.90
15152;DHT22;7676;50.900;6.234;2022-09-24T00:49:40;17.60;99.90
15152;DHT22;7676;50.900;6.234;2022-09-24T00:54:43;17.30;99.90
15152;DHT22;7676;50.900;6.234;2022-09-24T00:59:47;17.40;99.90
15152;DHT22;7676;50.900;6.234;2022-09-24T01:09:58;17.40;99.90
15152;DHT22;7676;50.900;6.234;2022-09-24T01:25:41;17.30;99.90
15152;DHT22;7676;50.900;6.234;2022-09-24T01:30:47;17.30;99.90
15152;DHT22;7676;50.900;6.234;2022-09-24T01:35:56;17.20;99.90
15152;DHT22;7676;50.900;6.234;2022-09-24T01:41:02;16.30;99.90
15152;DHT22;7676;50.900;6.234;2022-09-24T01:46:10;17.20;99.90
15152;DHT22;7676;50.900;6.234;2022-09-24T01:51:22;17.20;99.90
15152;DHT22;7676;50.900;6.234;2022-09-24T01:56:44;17.00;99.90
15152;DHT22;7676;50.900;6.234;2022-09-24T02:02:04;17.10;99.90
15152;DHT22;7676;50.900;6.234;2022-09-24T02:07:25;17.20;99.90
15152;DHT22;7676;50.900;6.234;2022-09-24T02:12:36;17.10;99.90
15152;DHT22;7676;50.900;6.234;2022-09-24T02:17:45;17.10;99.90
15152;DHT22;7676;50.900;6.234;2022-09-24T02:22:49;17.10;99.90
15152;DHT22;7676;50.900;6.234;2022-09-24T02:27:54;17.10;99.90
15152;DHT22;7676;50.900;6.234;2022-09-24T02:32:58;17.00;99.90
15152;DHT22;7676;50.900;6.234;2022-09-24T02:38:01;17.10;99.90
15152;DHT22;7676;50.900;6.234;2022-09-24T02:43:07;17.10;99.90
15152;DHT22;7676;50.900;6.234;2022-09-24T02:48:10;17.20;99.90
15152;DHT22;7676;50.900;6.234;2022-09-24T02:53:14;17.20;99.90
15152;DHT22;7676;50.900;6.234;2022-09-24T02:58:18;17.10;99.90
15152;DHT22;7676;50.900;6.234;2022-09-24T03:03:25;17.20;99.90
15152;DHT22;7676;50.900;6.234;2022-09-24T03:08:28;17.20;99.90
15152;DHT22;7676;50.900;6.234;2022-09-24T03:13:34;17.20;99.90
15152;DHT22;7676;50.900;6.234;2022-09-24T03:18:37;17.10;99.90
15152;DHT22;7676;50.900;6.234;2022-09-24T03:23:40;16.80;99.90
15152;DHT22;7676;50.900;6.234;2022-09-24T03:28:44;16.50;99.90
15152;DHT22;7676;50.900;6.234;2022-09-24T03:33:47;16.50;99.90
15152;DHT22;7676;50.900;6.234;2022-09-24T03:38:55;16.40;99.90
15152;DHT22;7676;50.900;6.234;2022-09-24T03:44:02;16.30;99.90
15152;DHT22;7676;50.900;6.234;2022-09-24T03:49:04;16.40;99.90
15152;DHT22;7676;50.900;6.234;2022-09-24T03:54:07;16.30;99.90
15152;DHT22;7676;50.900;6.234;2022-09-24T03:59:10;16.40;99.90
15152;DHT22;7676;50.900;6.234;2022-09-24T04:04:13;16.30;99.90
15152;DHT22;7676;50.900;6.234;2022-09-24T04:09:17;16.30;99.90
15152;DHT22;7676;50.900;6.234;2022-09-24T04:14:20;16.30;99.90
15152;DHT22;7676;50.900;6.234;2022-09-24T04:19:23;16.30;99.90
15152;DHT22;7676;50.900;6.234;2022-09-24T04:24:28;16.50;99.90
15152;DHT22;7676;50.900;6.234;2022-09-24T04:29:31;16.50;99.90
15152;DHT22;7676;50.900;6.234;2022-09-24T04:34:33;16.60;99.90
15152;DHT22;7676;50.900;6.234;2022-09-24T04:39:36;16.70;99.90
15152;DHT22;7676;50.900;6.234;2022-09-24T04:44:39;16.50;99.90
15152;DHT22;7676;50.900;6.234;2022-09-24T04:49:42;15.90;99.90
15152;DHT22;7676;50.900;6.234;2022-09-24T04:54:47;15.80;99.90
15152;DHT22;7676;50.900;6.234;2022-09-24T04:59:50;16.10;99.90
15152;DHT22;7676;50.900;6.234;2022-09-24T05:04:54;16.30;99.90
15152;DHT22;7676;50.900;6.234;2022-09-24T05:09:57;16.40;99.90
15152;DHT22;7676;50.900;6.234;2022-09-24T05:15:00;16.50;99.90
15152;DHT22;7676;50.900;6.234;2022-09-24T05:20:03;16.40;99.90
15152;DHT22;7676;50.900;6.234;2022-09-24T05:25:09;16.40;99.90
15152;DHT22;7676;50.900;6.234;2022-09-24T05:30:13;16.30;99.90
15152;DHT22;7676;50.900;6.234;2022-09-24T05:35:16;16.20;99.90
15152;DHT22;7676;50.900;6.234;2022-09-24T05:40:19;16.20;99.90
15152;DHT22;7676;50.900;6.234;2022-09-24T05:45:41;16.10;99.90
15152;DHT22;7676;50.900;6.234;2022-09-24T05:50:44;16.00;99.90
15152;DHT22;7676;50.900;6.234;2022-09-24T05:55:47;15.90;99.90
15152;DHT22;7676;50.900;6.234;2022-09-24T06:00:50;15.80;99.90
15152;DHT22;7676;50.900;6.234;2022-09-24T06:05:53;15.80;99.90
15152;DHT22;7676;50.900;6.234;2022-09-24T06:11:01;15.80;99.90
15152;DHT22;7676;50.900;6.234;2022-09-24T06:16:09;15.60;99.90
15152;DHT22;7676;50.900;6.234;2022-09-24T06:21:14;15.50;99.90
15152;DHT22;7676;50.900;6.234;2022-09-24T06:26:19;15.70;99.90
15152;DHT22;7676;50.900;6.234;2022-09-24T06:31:21;15.70;99.90
15152;DHT22;7676;50.900;6.234;2022-09-24T06:36:24;15.70;99.90
15152;DHT22;7676;50.900;6.234;2022-09-24T06:41:27;15.90;99.90
15152;DHT22;7676;50.900;6.234;2022-09-24T06:46:30;16.10;99.90
15152;DHT22;7676;50.900;6.234;2022-09-24T06:51:33;16.00;99.90
15152;DHT22;7676;50.900;6.234;2022-09-24T06:56:36;15.90;99.90
15152;DHT22;7676;50.900;6.234;2022-09-24T07:01:38;16.00;99.90
15152;DHT22;7676;50.900;6.234;2022-09-24T07:06:41;16.20;99.90
15152;DHT22;7676;50.900;6.234;2022-09-24T07:12:04;16.30;99.90
15152;DHT22;7676;50.900;6.234;2022-09-24T07:17:11;16.30;99.90
15152;DHT22;7676;50.900;6.234;2022-09-24T07:22:18;16.40;99.90
15152;DHT22;7676;50.900;6.234;2022-09-24T07:27:22;16.50;99.90
15152;DHT22;7676;50.900;6.234;2022-09-24T07:32:26;16.50;99.90
15152;DHT22;7676;50.900;6.234;2022-09-24T07:37:32;16.60;99.90
15152;DHT22;7676;50.900;6.234;2022-09-24T07:42:35;16.70;99.90
15152;DHT22;7676;50.900;6.234;2022-09-24T07:47:38;16.70;99.90
15152;DHT22;7676;50.900;6.234;2022-09-24T07:52:41;16.80;99.90
15152;DHT22;7676;50.900;6.234;2022-09-24T07:57:48;16.80;99.90
15152;DHT22;7676;50.900;6.234;2022-09-24T08:02:51;16.90;99.90
15152;DHT22;7676;50.900;6.234;2022-09-24T08:07:56;16.90;99.90
15152;DHT22;7676;50.900;6.234;2022-09-24T08:13:01;17.00;99.90
15152;DHT22;7676;50.900;6.234;2022-09-24T08:18:05;17.00;99.90
15152;DHT22;7676;50.900;6.234;2022-09-24T08:23:08;17.10;99.90
15152;DHT22;7676;50.900;6.234;2022-09-24T08:28:15;17.20;99.90
15152;DHT22;7676;50.900;6.234;2022-09-24T08:33:28;17.40;99.90
15152;DHT22;7676;50.900;6.234;2022-09-24T08:38:55;17.40;99.90
15152;DHT22;7676;50.900;6.234;2022-09-24T08:44:13;17.40;99.90
15152;DHT22;7676;50.900;6.234;2022-09-24T08:49:26;17.20;99.90
15152;DHT22;7676;50.900;6.234;2022-09-24T08:54:38;17.30;99.90
15152;DHT22;7676;50.900;6.234;2022-09-24T09:00:12;17.40;99.90
15152;DHT22;7676;50.900;6.234;2022-09-24T09:10:40;17.20;99.90
15152;DHT22;7676;50.900;6.234;2022-09-24T09:15:51;17.00;99.90
15152;DHT22;7676;50.900;6.234;2022-09-24T09:21:04;17.10;99.90
15152;DHT22;7676;50.900;6.234;2022-09-24T09:26:09;17.10;99.90
15152;DHT22;7676;50.900;6.234;2022-09-24T09:37:25;16.50;99.90
15152;DHT22;7676;50.900;6.234;2022-09-24T09:47:42;17.40;99.90
15152;DHT22;7676;50.900;6.234;2022-09-24T09:52:46;17.40;99.90
15152;DHT22;7676;50.900;6.234;2022-09-24T09:57:50;17.50;99.90
15152;DHT22;7676;50.900;6.234;2022-09-24T10:02:53;17.90;99.90
15152;DHT22;7676;50.900;6.234;2022-09-24T10:07:57;17.70;99.90
15152;DHT22;7676;50.900;6.234;2022-09-24T10:13:11;17.60;99.90
15152;DHT22;7676;50.900;6.234;2022-09-24T10:18:15;17.50;99.90
15152;DHT22;7676;50.900;6.234;2022-09-24T10:23:20;17.30;99.90
15152;DHT22;7676;50.900;6.234;2022-09-24T10:28:23;17.10;99.90
15152;DHT22;7676;50.900;6.234;2022-09-24T10:33:47;17.20;99.90
15152;DHT22;7676;50.900;6.234;2022-09-24T10:39:23;17.10;99.90
15152;DHT22;7676;50.900;6.234;2022-09-24T10:44:34;17.40;99.90
15152;DHT22;7676;50.900;6.234;2022-09-24T11:00:14;17.50;99.90
15152;DHT22;7676;50.900;6.234;2022-09-24T11:05:20;17.20;99.90
15152;DHT22;7676;50.900;6.234;2022-09-24T11:21:19;17.20;99.90
15152;DHT22;7676;50.900;6.234;2022-09-24T11:26:52;17.20;99.90
15152;DHT22;7676;50.900;6.234;2022-09-24T11:43:04;17.30;99.90
15152;DHT22;7676;50.900;6.234;2022-09-24T11:53:42;17.20;99.90
15152;DHT22;7676;50.900;6.234;2022-09-24T12:03:57;17.00;99.90
15152;DHT22;7676;50.900;6.234;2022-09-24T12:14:48;16.80;99.90
15152;DHT22;7676;50.900;6.234;2022-09-24T12:20:00;16.90;99.90
15152;DHT22;7676;50.900;6.234;2022-09-24T12:25:04;16.90;99.90
15152;DHT22;7676;50.900;6.234;2022-09-24T12:30:45;17.10;99.90
15152;DHT22;7676;50.900;6.234;2022-09-24T12:41:33;17.00;99.90
15152;DHT22;7676;50.900;6.234;2022-09-24T12:46:51;17.00;99.90
15152;DHT22;7676;50.900;6.234;2022-09-24T12:57:20;17.00;99.90
15152;DHT22;7676;50.900;6.234;2022-09-24T13:02:48;17.10;99.90
15152;DHT22;7676;50.900;6.234;2022-09-24T13:13:27;17.10;99.90
15152;DHT22;7676;50.900;6.234;2022-09-24T13:18:32;17.10;99.90
15152;DHT22;7676;50.900;6.234;2022-09-24T13:39:29;17.20;99.90
15152;DHT22;7676;50.900;6.234;2022-09-24T13:45:41;17.00;99.90
15152;DHT22;7676;50.900;6.234;2022-09-24T13:50:49;17.40;99.90
15152;DHT22;7676;50.900;6.234;2022-09-24T13:55:59;17.20;99.90
15152;DHT22;7676;50.900;6.234;2022-09-24T14:01:15;17.20;99.90
15152;DHT22;7676;50.900;6.234;2022-09-24T14:06:34;17.00;99.90
15152;DHT22;7676;50.900;6.234;2022-09-24T14:11:38;17.40;99.90
15152;DHT22;7676;50.900;6.234;2022-09-24T14:16:50;17.20;99.90
15152;DHT22;7676;50.900;6.234;2022-09-24T14:21:57;17.40;99.90
15152;DHT22;7676;50.900;6.234;2022-09-24T14:27:12;17.10;99.90
15152;DHT22;7676;50.900;6.234;2022-09-24T14:32:27;17.20;99.90
15152;DHT22;7676;50.900;6.234;2022-09-24T14:37:34;17.20;99.90
15152;DHT22;7676;50.900;6.234;2022-09-24T14:42:50;17.20;99.90
15152;DHT22;7676;50.900;6.234;2022-09-24T14:48:01;17.20;99.90
15152;DHT22;7676;50.900;6.234;2022-09-24T14:53:21;17.20;99.90
15152;DHT22;7676;50.900;6.234;2022-09-24T15:08:40;17.20;99.90
15152;DHT22;7676;50.900;6.234;2022-09-24T15:13:44;16.80;99.90
15152;DHT22;7676;50.900;6.234;2022-09-24T15:19:17;17.00;99.90
15152;DHT22;7676;50.900;6.234;2022-09-24T15:26:44;16.90;99.90
15152;DHT22;7676;50.900;6.234;2022-09-24T15:32:30;17.00;99.90
15152;DHT22;7676;50.900;6.234;2022-09-24T15:37:37;16.70;99.90
15152;DHT22;7676;50.900;6.234;2022-09-24T15:42:40;16.70;99.90
15152;DHT22;7676;50.900;6.234;2022-09-24T15:47:43;16.70;99.90
15152;DHT22;7676;50.900;6.234;2022-09-24T15:52:54;16.80;99.90
15152;DHT22;7676;50.900;6.234;2022-09-24T15:57:58;16.90;99.90
15152;DHT22;7676;50.900;6.234;2022-09-24T16:03:00;16.80;99.90
15152;DHT22;7676;50.900;6.234;2022-09-24T16:08:03;16.80;99.90
15152;DHT22;7676;50.900;6.234;2022-09-24T16:13:06;16.70;99.90
15152;DHT22;7676;50.900;6.234;2022-09-24T16:18:14;16.70;99.90
15152;DHT22;7676;50.900;6.234;2022-09-24T16:23:17;16.70;99.90
15152;DHT22;7676;50.900;6.234;2022-09-24T16:28:21;16.70;99.90
15152;DHT22;7676;50.900;6.234;2022-09-24T16:33:25;16.90;99.90
15152;DHT22;7676;50.900;6.234;2022-09-24T16:38:28;16.70;99.90
15152;DHT22;7676;50.900;6.234;2022-09-24T16:43:33;16.80;99.90
15152;DHT22;7676;50.900;6.234;2022-09-24T16:48:36;16.80;99.90
15152;DHT22;7676;50.900;6.234;2022-09-24T16:53:39;16.90;99.90
15152;DHT22;7676;50.900;6.234;2022-09-24T16:58:48;17.00;99.90
15152;DHT22;7676;50.900;6.234;2022-09-24T17:03:51;17.00;99.90
15152;DHT22;7676;50.900;6.234;2022-09-24T17:08:55;16.90;99.90
15152;DHT22;7676;50.900;6.234;2022-09-24T17:14:17;18.40;99.90
15152;DHT22;7676;50.900;6.234;2022-09-24T17:19:19;16.60;99.90
15152;DHT22;7676;50.900;6.234;2022-09-24T17:24:22;16.20;99.90
15152;DHT22;7676;50.900;6.234;2022-09-24T17:29:25;16.00;99.90
15152;DHT22;7676;50.900;6.234;2022-09-24T17:34:33;15.90;99.90
15152;DHT22;7676;50.900;6.234;2022-09-24T17:39:37;15.80;99.90
15152;DHT22;7676;50.900;6.234;2022-09-24T17:44:40;15.60;99.90
15152;DHT22;7676;50.900;6.234;2022-09-24T17:49:44;15.60;99.90
15152;DHT22;7676;50.900;6.234;2022-09-24T17:54:47;15.50;99.90
15152;DHT22;7676;50.900;6.234;2022-09-24T17:59:50;15.60;99.90
15152;DHT22;7676;50.900;6.234;2022-09-24T18:04:52;15.50;99.90
15152;DHT22;7676;50.900;6.234;2022-09-24T18:09:55;14.90;99.90
15152;DHT22;7676;50.900;6.234;2022-09-24T18:14:58;14.90;99.90
15152;DHT22;7676;50.900;6.234;2022-09-24T18:20:01;15.10;99.90
15152;DHT22;7676;50.900;6.234;2022-09-24T18:25:05;14.90;99.90
15152;DHT22;7676;50.900;6.234;2022-09-24T18:30:08;15.00;99.90
15152;DHT22;7676;50.900;6.234;2022-09-24T18:35:13;14.90;99.90
15152;DHT22;7676;50.900;6.234;2022-09-24T18:40:15;14.80;99.90
15152;DHT22;7676;50.900;6.234;2022-09-24T18:45:18;14.80;99.90
15152;DHT22;7676;50.900;6.234;2022-09-24T18:50:21;14.70;99.90
15152;DHT22;7676;50.900;6.234;2022-09-24T18:55:23;14.60;99.90
15152;DHT22;7676;50.900;6.234;2022-09-24T19:00:27;14.60;99.90
15152;DHT22;7676;50.900;6.234;2022-09-24T19:05:48;14.60;99.90
15152;DHT22;7676;50.900;6.234;2022-09-24T19:10:53;14.40;99.90
15152;DHT22;7676;50.900;6.234;2022-09-24T19:15:55;14.40;99.90
15152;DHT22;7676;50.900;6.234;2022-09-24T19:20:58;14.40;99.90
15152;DHT22;7676;50.900;6.234;2022-09-24T19:26:01;14.30;99.90
15152;DHT22;7676;50.900;6.234;2022-09-24T19:31:04;14.30;99.90
15152;DHT22;7676;50.900;6.234;2022-09-24T19:36:08;14.30;99.90
15152;DHT22;7676;50.900;6.234;2022-09-24T19:41:17;14.30;99.90
15152;DHT22;7676;50.900;6.234;2022-09-24T19:46:24;14.00;99.90
15152;DHT22;7676;50.900;6.234;2022-09-24T19:51:29;14.00;99.90
15152;DHT22;7676;50.900;6.234;2022-09-24T19:56:33;14.30;99.90
15152;DHT22;7676;50.900;6.234;2022-09-24T20:01:35;14.20;99.90
15152;DHT22;7676;50.900;6.234;2022-09-24T20:06:39;14.20;99.90
15152;DHT22;7676;50.900;6.234;2022-09-24T20:11:42;14.10;99.90
15152;DHT22;7676;50.900;6.234;2022-09-24T20:16:45;14.10;99.90
15152;DHT22;7676;50.900;6.234;2022-09-24T20:21:47;13.90;99.90
15152;DHT22;7676;50.900;6.234;2022-09-24T20:26:50;14.20;99.90
15152;DHT22;7676;50.900;6.234;2022-09-24T20:32:11;14.10;99.90
15152;DHT22;7676;50.900;6.234;2022-09-24T20:37:18;14.00;99.90
15152;DHT22;7676;50.900;6.234;2022-09-24T20:42:21;14.10;99.90
15152;DHT22;7676;50.900;6.234;2022-09-24T20:47:25;14.20;99.90
15152;DHT22;7676;50.900;6.234;2022-09-24T20:52:31;14.30;99.90
15152;DHT22;7676;50.900;6.234;2022-09-24T20:57:35;14.10;99.90
15152;DHT22;7676;50.900;6.234;2022-09-24T21:02:37;14.40;99.90
15152;DHT22;7676;50.900;6.234;2022-09-24T21:07:43;14.50;99.90
15152;DHT22;7676;50.900;6.234;2022-09-24T21:12:45;14.30;99.90
15152;DHT22;7676;50.900;6.234;2022-09-24T21:17:52;14.50;99.90
15152;DHT22;7676;50.900;6.234;2022-09-24T21:23:15;14.70;99.90
15152;DHT22;7676;50.900;6.234;2022-09-24T21:28:19;14.60;99.90
15152;DHT22;7676;50.900;6.234;2022-09-24T21:33:22;14.80;99.90
15152;DHT22;7676;50.900;6.234;2022-09-24T21:38:25;14.80;99.90
15152;DHT22;7676;50.900;6.234;2022-09-24T21:43:28;14.90;99.90
15152;DHT22;7676;50.900;6.234;2022-09-24T21:48:36;14.80;99.90
15152;DHT22;7676;50.900;6.234;2022-09-24T21:53:39;14.60;99.90
15152;DHT22;7676;50.900;6.234;2022-09-24T21:58:41;14.30;99.90
15152;DHT22;7676;50.900;6.234;2022-09-24T22:03:44;14.30;99.90
15152;DHT22;7676;50.900;6.234;2022-09-24T22:08:48;14.10;99.90
15152;DHT22;7676;50.900;6.234;2022-09-24T22:13:50;14.10;99.90
15152;DHT22;7676;50.900;6.234;2022-09-24T22:18:53;14.00;99.90
15152;DHT22;7676;50.900;6.234;2022-09-24T22:23:57;14.10;99.90
15152;DHT22;7676;50.900;6.234;2022-09-24T22:29:01;14.10;99.90
15152;DHT22;7676;50.900;6.234;2022-09-24T22:34:05;14.30;99.90
15152;DHT22;7676;50.900;6.234;2022-09-24T22:39:28;14.40;99.90
15152;DHT22;7676;50.900;6.234;2022-09-24T22:44:30;14.50;99.90
15152;DHT22;7676;50.900;6.234;2022-09-24T22:49:33;14.50;99.90
15152;DHT22;7676;50.900;6.234;2022-09-24T22:54:38;14.90;99.90
15152;DHT22;7676;50.900;6.234;2022-09-24T22:59:41;15.20;99.90
15152;DHT22;7676;50.900;6.234;2022-09-24T23:04:45;15.00;99.90
15152;DHT22;7676;50.900;6.234;2022-09-24T23:09:48;15.10;99.90
15152;DHT22;7676;50.900;6.234;2022-09-24T23:14:50;15.30;99.90
15152;DHT22;7676;50.900;6.234;2022-09-24T23:19:53;15.40;99.90
15152;DHT22;7676;50.900;6.234;2022-09-24T23:24:56;15.50;99.90
15152;DHT22;7676;50.900;6.234;2022-09-24T23:29:59;15.30;99.90
15152;DHT22;7676;50.900;6.234;2022-09-24T23:35:02;15.40;99.90
15152;DHT22;7676;50.900;6.234;2022-09-24T23:40:06;15.30;99.90
15152;DHT22;7676;50.900;6.234;2022-09-24T23:45:09;15.30;99.90
15152;DHT22;7676;50.900;6.234;2022-09-24T23:50:11;15.20;99.90
15152;DHT22;7676;50.900;6.234;2022-09-24T23:55:14;14.80;99.90
